Airfield :
LOGIN :

Register | Disclaimer

   EN    FR    IT 

 










Legend :    VFR   Marginal VFR   IFR   Intensive IFR   Very Intensive IFR
Visi :
Ceiling :
>= 8 km
>= 3000ft
5 to 8 km
1000 to 3000 ft
1500m to 5 km
500 to 1000 ft
800 to 1500m
200 to 500 ft
< 800m
< 200 ft
Symbols :   Thunderstorms  Fog  Heavy snow  Heavy precipitations  Wind > 20 kt
SIGMETs :     Misc.  Thunderstorms  Icing  Turbulence  Mountain Waves  Volcanic Ashes







- Airport Elevation : 1213 ft
- IATA code : SCQ


LEST - Santiago de Compostela

CURRENT METAR :
  • 150030Z 29005KT 230V330 8000 3000S BCFG SCT001 SCT007 BKN014 09/09 Q1016 NOSIG

EXPIRED METARs :
  • 150000Z 25003KT 200V290 8000 3000S BCFG SCT001 BKN020 09/09 Q1016 TEMPO BKN010
  • 142330Z 27004KT 210V330 9999 SCT005 SCT029 09/09 Q1017 NOSIG
  • 142300Z 27003KT 240V300 9999 SCT004 SCT032 09/09 Q1017 NOSIG
  • 142230Z VRB02KT 6000 -RADZ SCT005 BKN009 09/09 Q1017 NOSIG
  • 142213Z 27005KT 220V310 4000 -RADZ BKN010 09/09 Q1017 NOSIG
  • 142200Z 27005KT 230V320 9999 FEW015 SCT034 09/09 Q1017 TEMPO BKN010

TAF TAF LEST
Valid from the 15 at 00:00 until the 16 at 00:00 UTC


142300Z 1500/1524 32005KT 9999 SCT010 BKN015 TX09/1514Z TN04/1506Z
TEMPO 1500/1512 3000 -RADZ BR BKN005 BKN010
PROB40
TEMPO 1500/1510 0800 BCFG BKN002
No reported NOTAMs for that airfield.
1 SIGMET reported for the Madrid FIR (LECM) :
 
Severe turbulence
LECM SIGMET 1 VALID 150015/150400 LEVA
LECM MADRID FIR SEV TURB FCST E OF LINE N4453 W00734 - N4334 W00649 SFC/FL040 STNR WKN=



MET'MAP, your aeronautical weather chart ! - Copyright ORBIFLY December 2007 - Disclaimer

ORBIFLY MET'MAP TEAM :

Programming & Development : Alexandra Zaïnal
Concept & Development : Baudouin d'Aumeries
Co-Development & Prog : Marc-Olivier Méhu
Technical & hardware support : Manuel Goepfert

Contact : metmap@orbifly.com




SOURCES & CREDITS :

   NOAA